Time;durP1;ratioP1;P1;durP2;ratioP2;P2;SDS_P1;SDS_P2;PMS_P1;PMS_P2;Temp;Humidity;BMP_temperature;BMP_pressure;BME280_temperature;BME280_humidity;BME280_pressure;Samples;Min_cycle;Max_cycle;Signal;HPM_P1;HPM_P2
2022/03/29 00:01:36;;;;;;;26.07;19.00;;;;;;;10.57;57.77;99891.94;4966746;28;20304;-64
2022/03/29 00:04:02;;;;;;;28.27;18.13;;;;;;;10.58;57.43;99883.31;4973330;28;20639;-63
2022/03/29 00:06:27;;;;;;;27.70;20.20;;;;;;;10.49;57.73;99886.41;4973715;28;20191;-63
2022/03/29 00:08:53;;;;;;;34.03;20.90;;;;;;;10.52;57.91;99881.09;4973765;28;20176;-63
2022/03/29 00:11:18;;;;;;;28.30;19.77;;;;;;;10.46;58.58;99886.59;4974541;28;20238;-63
2022/03/29 00:13:44;;;;;;;26.47;19.87;;;;;;;10.48;58.16;99888.16;4973282;28;20326;-61
2022/03/29 00:16:09;;;;;;;28.23;18.37;;;;;;;10.45;58.31;99879.81;4972957;28;20184;-62
2022/03/29 00:18:35;;;;;;;35.40;22.60;;;;;;;10.38;58.71;99887.06;4975146;28;20698;-61
2022/03/29 00:21:00;;;;;;;29.17;21.07;;;;;;;10.39;59.36;99891.25;4971894;28;20314;-61
2022/03/29 00:23:25;;;;;;;31.13;19.90;;;;;;;10.38;58.99;99879.34;4998671;28;20191;-61
2022/03/29 00:25:51;;;;;;;35.10;19.03;;;;;;;10.25;60.71;99873.19;4993823;28;20190;-61
2022/03/29 00:28:16;;;;;;;28.43;19.80;;;;;;;10.22;60.84;99875.94;4992505;28;20334;-63
2022/03/29 00:30:41;;;;;;;27.93;19.83;;;;;;;10.21;60.75;99871.69;4988899;28;20230;-63
2022/03/29 00:33:07;;;;;;;29.37;19.83;;;;;;;10.23;61.14;99872.44;5003455;28;20258;-63
2022/03/29 00:35:33;;;;;;;39.33;20.23;;;;;;;10.14;61.28;99866.91;4993798;28;20183;-62
2022/03/29 00:37:58;;;;;;;27.00;19.47;;;;;;;10.20;61.31;99865.75;4993712;28;20180;-61
2022/03/29 00:40:23;;;;;;;29.53;20.97;;;;;;;10.07;60.87;99860.47;4973099;28;20301;-62
2022/03/29 00:42:49;;;;;;;31.07;20.53;;;;;;;10.10;61.39;99852.59;4986345;28;20192;-62
2022/03/29 00:45:15;;;;;;;29.67;19.90;;;;;;;9.95;62.93;99856.03;4985740;28;20600;-62
2022/03/29 00:47:41;;;;;;;28.20;19.93;;;;;;;9.97;62.12;99856.75;4993619;28;20215;-62
2022/03/29 00:50:07;;;;;;;34.40;19.87;;;;;;;9.90;63.16;99852.84;4982490;28;20285;-62
2022/03/29 00:52:34;;;;;;;28.90;19.50;;;;;;;9.87;62.44;99855.63;4982113;28;20181;-62
2022/03/29 00:55:02;;;;;;;28.27;18.67;;;;;;;9.97;63.20;99856.75;4971433;28;20647;-62
2022/03/29 00:57:28;;;;;;;28.73;20.03;;;;;;;9.96;62.82;99857.66;4974477;28;20226;-62
2022/03/29 00:59:55;;;;;;;35.43;21.47;;;;;;;10.05;62.15;99857.16;4972819;28;20179;-64
2022/03/29 01:02:21;;;;;;;33.87;20.80;;;;;;;9.99;62.71;99854.94;4979219;28;20254;-63
2022/03/29 01:04:47;;;;;;;37.60;21.43;;;;;;;9.99;62.39;99849.78;4973592;28;20624;-64
2022/03/29 01:07:13;;;;;;;32.33;21.00;;;;;;;9.97;62.15;99849.03;4973152;28;20192;-64
2022/03/29 01:09:38;;;;;;;30.50;20.53;;;;;;;9.92;62.59;99835.63;4973803;28;20261;-62
2022/03/29 01:12:04;;;;;;;32.83;22.07;;;;;;;9.75;63.14;99837.41;4978692;28;20247;-62
2022/03/29 01:14:29;;;;;;;34.73;21.77;;;;;;;9.72;63.69;99840.13;4973342;28;20239;-63
2022/03/29 01:19:43;;;;;;;31.50;20.63;;;;;;;9.52;65.49;99841.22;4973825;28;20215;-61
2022/03/29 01:22:10;;;;;;;33.07;21.60;;;;;;;9.52;66.16;99834.34;4971046;28;20219;-63
2022/03/29 01:24:46;;;;;;;31.00;20.83;;;;;;;9.57;66.71;99839.22;4986193;28;20611;-61
2022/03/29 01:27:12;;;;;;;28.70;20.10;;;;;;;9.59;65.89;99834.84;4973588;28;20273;-62
2022/03/29 01:29:39;;;;;;;30.30;21.13;;;;;;;9.47;67.11;99828.63;4972300;28;20180;-62
2022/03/29 01:32:08;;;;;;;29.97;22.03;;;;;;;9.42;67.52;99828.06;4964843;28;20679;-62
2022/03/29 01:34:35;;;;;;;28.40;20.90;;;;;;;9.48;67.61;99826.91;4971482;28;20188;-62
2022/03/29 01:37:03;;;;;;;30.33;20.63;;;;;;;9.46;67.83;99823.59;4971245;28;20667;-61
2022/03/29 01:39:29;;;;;;;31.13;21.07;;;;;;;9.40;68.11;99816.22;4971898;28;20184;-61
2022/03/29 01:41:54;;;;;;;31.10;21.43;;;;;;;9.37;67.95;99815.47;4977164;28;20248;-62
2022/03/29 01:44:19;;;;;;;31.33;22.27;;;;;;;9.30;67.92;99810.75;4979611;28;20183;-62
2022/03/29 01:46:45;;;;;;;29.37;21.80;;;;;;;9.20;68.34;99808.69;4992699;28;20197;-62
2022/03/29 01:49:10;;;;;;;36.07;22.30;;;;;;;9.26;68.42;99799.81;4991243;28;20191;-61
2022/03/29 01:51:36;;;;;;;34.13;23.43;;;;;;;9.28;68.42;99808.28;4982779;28;20686;-62
2022/03/29 01:54:02;;;;;;;33.73;22.33;;;;;;;9.07;70.25;99805.13;4975912;28;20694;-62
2022/03/29 01:56:29;;;;;;;31.67;21.87;;;;;;;9.12;69.77;99800.56;4970628;28;20563;-62
2022/03/29 01:58:55;;;;;;;35.83;23.70;;;;;;;9.21;69.35;99801.81;4973490;28;20190;-62
2022/03/29 02:01:20;;;;;;;30.67;22.17;;;;;;;9.02;70.05;99799.41;4972686;28;20313;-62
2022/03/29 02:03:46;;;;;;;30.77;20.97;;;;;;;9.02;70.15;99804.53;4977507;28;20234;-62
2022/03/29 02:06:11;;;;;;;34.83;21.90;;;;;;;9.02;70.56;99802.78;4972701;28;20343;-62
2022/03/29 02:08:36;;;;;;;35.10;21.97;;;;;;;9.09;69.67;99802.47;4971709;28;20235;-62
2022/03/29 02:11:02;;;;;;;35.27;21.87;;;;;;;9.11;69.65;99796.34;4970746;28;20255;-62
2022/03/29 02:13:27;;;;;;;32.53;22.37;;;;;;;9.12;69.96;99799.75;4979979;28;20249;-63
2022/03/29 02:15:52;;;;;;;31.50;22.13;;;;;;;9.03;71.26;99804.44;4971386;28;20188;-62
2022/03/29 02:18:18;;;;;;;33.67;23.50;;;;;;;9.06;70.77;99805.19;4972980;28;20234;-62
2022/03/29 02:20:43;;;;;;;36.37;23.37;;;;;;;9.03;71.25;99807.00;4967714;28;20242;-62
2022/03/29 02:23:12;;;;;;;29.20;21.63;;;;;;;9.01;70.88;99801.13;4996684;28;20207;-62
2022/03/29 02:25:38;;;;;;;33.03;22.87;;;;;;;9.00;70.75;99802.03;4985430;28;20274;-62
2022/03/29 02:28:03;;;;;;;32.27;22.43;;;;;;;9.00;71.03;99793.50;4972575;28;20299;-62
2022/03/29 02:30:30;;;;;;;30.43;22.10;;;;;;;8.99;71.17;99795.25;4966131;28;20328;-62
2022/03/29 02:32:55;;;;;;;30.50;22.23;;;;;;;8.90;72.12;99790.59;4970841;28;20206;-62
2022/03/29 02:35:21;;;;;;;31.63;22.13;;;;;;;8.78;72.80;99791.25;4968337;28;20632;-62
2022/03/29 02:37:46;;;;;;;34.03;23.13;;;;;;;8.78;73.43;99784.41;4971354;28;20277;-62
2022/03/29 02:40:15;;;;;;;34.20;23.33;;;;;;;8.74;73.78;99776.94;4963608;28;20190;-62
2022/03/29 02:42:43;;;;;;;31.30;22.90;;;;;;;8.64;74.32;99779.16;4971288;28;20283;-62
2022/03/29 02:45:12;;;;;;;34.63;23.20;;;;;;;8.64;74.32;99774.84;4982742;28;20217;-62
2022/03/29 02:47:37;;;;;;;36.60;23.00;;;;;;;8.70;74.11;99771.94;4990378;28;20721;-63
2022/03/29 02:50:03;;;;;;;33.67;23.43;;;;;;;8.74;73.30;99769.25;4987120;28;20178;-62
2022/03/29 02:52:29;;;;;;;34.90;23.00;;;;;;;8.78;73.12;99768.16;4997766;28;20286;-62
2022/03/29 02:54:54;;;;;;;33.10;23.57;;;;;;;8.78;72.86;99760.47;4970809;28;20270;-62
2022/03/29 02:57:19;;;;;;;31.17;23.30;;;;;;;8.78;73.34;99757.91;4971960;28;20268;-63
2022/03/29 02:59:46;;;;;;;34.00;23.20;;;;;;;8.62;74.23;99756.16;4971686;28;20635;-62
2022/03/29 03:02:11;;;;;;;34.33;23.37;;;;;;;8.69;74.44;99767.72;4953162;28;20243;-62
2022/03/29 03:04:36;;;;;;;37.53;24.20;;;;;;;8.70;74.17;99758.31;4972121;28;20203;-62
2022/03/29 03:07:02;;;;;;;36.80;25.37;;;;;;;8.78;73.66;99745.94;4971141;28;20200;-64
2022/03/29 03:09:27;;;;;;;32.67;21.93;;;;;;;8.78;73.62;99752.78;4971237;28;20285;-62
2022/03/29 03:11:52;;;;;;;31.47;23.33;;;;;;;8.74;73.84;99751.28;4975869;28;20225;-62
2022/03/29 03:14:18;;;;;;;32.57;22.90;;;;;;;8.74;73.96;99754.66;4973126;28;20337;-62
2022/03/29 03:16:43;;;;;;;33.90;24.43;;;;;;;8.77;74.26;99753.69;4976135;28;20241;-61
2022/03/29 03:19:09;;;;;;;30.30;22.60;;;;;;;8.72;74.26;99754.75;4978108;28;20635;-61
2022/03/29 03:21:35;;;;;;;32.73;23.87;;;;;;;8.72;74.44;99749.63;4969619;28;20329;-61
2022/03/29 03:24:00;;;;;;;30.17;22.97;;;;;;;8.80;74.48;99745.84;4993223;28;20318;-60
2022/03/29 03:26:25;;;;;;;30.83;23.60;;;;;;;8.83;74.29;99748.22;4983860;28;20658;-61
2022/03/29 03:28:51;;;;;;;32.17;23.43;;;;;;;8.77;75.15;99751.97;4975640;28;20223;-61
2022/03/29 03:31:16;;;;;;;34.97;24.80;;;;;;;8.64;76.24;99750.94;4947329;28;20246;-61
2022/03/29 03:33:42;;;;;;;34.93;23.30;;;;;;;8.67;77.01;99743.91;4980092;28;20217;-62
2022/03/29 03:36:07;;;;;;;32.90;24.63;;;;;;;8.71;76.40;99742.84;4962939;28;20675;-63
2022/03/29 03:38:33;;;;;;;33.27;22.97;;;;;;;8.78;76.22;99737.38;4955991;28;20184;-62
2022/03/29 03:40:59;;;;;;;33.00;22.33;;;;;;;8.75;76.27;99743.50;4953225;28;20698;-62
2022/03/29 03:43:24;;;;;;;34.97;24.20;;;;;;;8.83;76.47;99733.69;4963629;28;20191;-62
2022/03/29 03:45:49;;;;;;;35.23;23.70;;;;;;;8.89;75.13;99729.94;4989619;28;20265;-62
2022/03/29 03:48:14;;;;;;;35.47;24.00;;;;;;;8.93;75.46;99728.03;4993094;28;20203;-62
2022/03/29 03:50:40;;;;;;;30.77;23.47;;;;;;;8.94;74.96;99720.25;4989373;28;20283;-62
2022/03/29 03:53:05;;;;;;;31.67;23.83;;;;;;;8.95;75.10;99719.34;4990634;28;20184;-62
2022/03/29 03:55:30;;;;;;;34.40;24.13;;;;;;;8.94;75.25;99712.56;4973813;28;20191;-61
2022/03/29 03:57:56;;;;;;;33.63;24.57;;;;;;;8.93;75.38;99708.38;4974319;28;20199;-61
2022/03/29 04:00:23;;;;;;;36.23;24.23;;;;;;;8.91;75.73;99706.81;4949851;28;20201;-62
2022/03/29 04:02:50;;;;;;;35.60;23.53;;;;;;;8.87;76.06;99704.38;4965880;28;20313;-61
2022/03/29 04:05:16;;;;;;;33.30;23.47;;;;;;;8.87;76.03;99695.88;4974275;28;20171;-61
2022/03/29 04:07:42;;;;;;;36.70;25.30;;;;;;;8.78;76.52;99692.06;4975016;28;20242;-61
2022/03/29 04:10:09;;;;;;;39.80;25.03;;;;;;;8.82;76.08;99691.00;4965394;28;20204;-62
2022/03/29 04:12:36;;;;;;;38.30;23.77;;;;;;;8.81;76.22;99685.94;4973479;28;20180;-63
2022/03/29 04:15:02;;;;;;;31.63;23.80;;;;;;;8.82;76.29;99688.41;4972908;28;20195;-62
2022/03/29 04:17:27;;;;;;;35.07;24.20;;;;;;;8.81;76.14;99679.06;4973684;28;20179;-62
2022/03/29 04:19:54;;;;;;;33.00;23.20;;;;;;;8.85;76.32;99688.25;4973268;28;20249;-62
2022/03/29 04:22:20;;;;;;;33.03;23.97;;;;;;;8.78;76.90;99681.81;4972595;28;20324;-61
2022/03/29 04:24:45;;;;;;;35.57;24.63;;;;;;;8.72;77.06;99675.25;4993405;28;20263;-62
2022/03/29 04:27:10;;;;;;;33.60;23.90;;;;;;;8.69;77.58;99677.16;4991792;28;20638;-61
2022/03/29 04:29:36;;;;;;;37.10;24.87;;;;;;;8.63;77.79;99680.88;4973710;28;20608;-63
2022/03/29 04:32:01;;;;;;;33.50;24.10;;;;;;;8.60;78.09;99675.91;4959897;28;20373;-62
2022/03/29 04:34:26;;;;;;;35.23;24.47;;;;;;;8.57;78.17;99665.84;4973933;28;20184;-60
2022/03/29 04:36:52;;;;;;;39.43;26.03;;;;;;;8.50;78.86;99673.00;4974210;28;20180;-64
2022/03/29 04:39:17;;;;;;;40.60;27.10;;;;;;;8.46;79.30;99666.41;4974386;28;20187;-61
2022/03/29 04:41:42;;;;;;;33.67;24.57;;;;;;;8.42;79.70;99662.28;4976963;28;20269;-62
2022/03/29 04:44:08;;;;;;;37.97;26.33;;;;;;;8.32;80.21;99667.09;4980213;28;20577;-62
2022/03/29 04:46:33;;;;;;;39.73;26.40;;;;;;;8.32;80.12;99667.09;4993508;28;20269;-61
2022/03/29 04:48:58;;;;;;;39.60;26.90;;;;;;;8.30;80.03;99668.91;4992147;28;20213;-61
2022/03/29 04:51:24;;;;;;;38.43;26.20;;;;;;;8.22;80.65;99666.75;4993211;28;20237;-60
2022/03/29 04:53:49;;;;;;;36.63;25.30;;;;;;;8.20;81.19;99667.72;4978440;28;20237;-65
2022/03/29 04:56:15;;;;;;;37.90;26.33;;;;;;;8.15;81.52;99660.28;4972683;28;20202;-61
2022/03/29 04:58:40;;;;;;;39.90;26.07;;;;;;;8.16;81.61;99651.69;4973909;28;20670;-62
2022/03/29 05:01:05;;;;;;;34.67;24.30;;;;;;;8.11;82.17;99653.63;4965380;28;20719;-61
2022/03/29 05:03:32;;;;;;;40.77;25.77;;;;;;;8.13;82.03;99656.97;4980225;28;20242;-60
2022/03/29 05:05:57;;;;;;;38.00;26.50;;;;;;;7.91;83.17;99654.66;4972193;28;20183;-61
2022/03/29 05:08:23;;;;;;;35.27;25.63;;;;;;;7.94;84.44;99658.78;4972219;28;20201;-61
2022/03/29 05:10:48;;;;;;;36.67;26.23;;;;;;;7.97;84.01;99656.09;4969484;28;20229;-60
2022/03/29 05:13:17;;;;;;;38.73;26.07;;;;;;;8.00;84.05;99658.47;4971887;28;20205;-60
2022/03/29 05:15:42;;;;;;;37.93;25.57;;;;;;;8.04;83.63;99657.44;4973172;28;20187;-61
2022/03/29 05:18:08;;;;;;;38.03;26.70;;;;;;;7.95;83.93;99652.78;4973592;28;20202;-61
2022/03/29 05:20:33;;;;;;;45.13;27.37;;;;;;;7.87;84.29;99651.41;4967372;28;20234;-61
2022/03/29 05:23:00;;;;;;;41.67;27.37;;;;;;;7.97;83.93;99649.22;4997361;28;20177;-61
2022/03/29 05:25:26;;;;;;;38.93;25.97;;;;;;;8.02;83.60;99649.81;4992971;28;20170;-61
2022/03/29 05:27:53;;;;;;;41.17;27.37;;;;;;;8.10;82.65;99659.69;4982105;28;20301;-63
2022/03/29 05:30:20;;;;;;;42.47;29.27;;;;;;;8.17;81.57;99655.88;4963933;28;20286;-62
2022/03/29 05:32:47;;;;;;;43.67;27.13;;;;;;;8.23;81.10;99662.44;4985838;28;20564;-61
2022/03/29 05:35:13;;;;;;;42.23;27.43;;;;;;;8.34;80.54;99655.00;4971532;28;20262;-62
2022/03/29 05:37:40;;;;;;;45.90;28.17;;;;;;;8.38;80.05;99659.09;4972011;28;20189;-61
2022/03/29 05:40:09;;;;;;;41.30;27.87;;;;;;;8.46;79.60;99655.28;4961446;28;20297;-61
2022/03/29 05:42:42;;;;;;;41.00;27.50;;;;;;;8.46;79.31;99665.53;4987269;28;20194;-61
2022/03/29 05:45:10;;;;;;;40.50;26.80;;;;;;;8.49;79.31;99666.22;4970291;28;20530;-62
2022/03/29 05:50:20;;;;;;;37.80;25.50;;;;;;;8.58;78.93;99670.03;4964548;28;20202;-61
2022/03/29 05:52:46;;;;;;;43.57;27.47;;;;;;;8.71;78.55;99673.59;4996655;28;20195;-63
2022/03/29 05:55:11;;;;;;;39.80;27.00;;;;;;;8.77;78.66;99666.47;4990144;28;20270;-62
2022/03/29 05:57:37;;;;;;;35.73;25.27;;;;;;;8.77;79.26;99666.47;4992322;28;20220;-61
2022/03/29 06:00:04;;;;;;;35.97;25.43;;;;;;;8.73;80.64;99678.66;4972498;28;20280;-62
2022/03/29 06:02:29;;;;;;;37.23;26.00;;;;;;;8.78;80.07;99676.69;4987227;28;20224;-62
2022/03/29 06:04:55;;;;;;;43.47;25.80;;;;;;;8.93;79.02;99677.59;4972528;28;20173;-62
2022/03/29 06:07:20;;;;;;;42.83;27.97;;;;;;;9.02;77.75;99678.81;4972581;28;20200;-62
2022/03/29 06:09:45;;;;;;;40.23;25.30;;;;;;;9.17;77.08;99669.44;4972221;28;20188;-62
2022/03/29 06:12:11;;;;;;;39.37;26.63;;;;;;;8.91;77.91;99674.28;4962876;28;20255;-62
2022/03/29 06:14:36;;;;;;;44.23;27.23;;;;;;;9.17;77.43;99674.59;4968936;28;20198;-62
2022/03/29 06:17:01;;;;;;;44.03;27.13;;;;;;;9.28;75.96;99672.25;4960981;28;20722;-63
2022/03/29 06:19:27;;;;;;;39.27;27.50;;;;;;;9.48;75.23;99675.44;4969417;28;20198;-62
2022/03/29 06:21:53;;;;;;;49.47;26.90;;;;;;;9.60;74.38;99676.44;4964075;28;20317;-62
2022/03/29 06:24:18;;;;;;;45.10;28.33;;;;;;;9.73;74.05;99682.53;4972473;28;20335;-62
2022/03/29 06:26:44;;;;;;;44.17;27.83;;;;;;;9.74;74.32;99684.19;4971221;28;20184;-62
2022/03/29 06:29:10;;;;;;;40.87;28.20;;;;;;;9.81;74.63;99685.50;4967478;28;20180;-63
2022/03/29 06:31:36;;;;;;;38.17;25.40;;;;;;;9.88;74.01;99678.25;4973613;28;20718;-61
2022/03/29 06:34:03;;;;;;;40.47;28.60;;;;;;;9.88;73.99;99685.97;4969846;28;20235;-61
2022/03/29 06:36:28;;;;;;;42.97;27.43;;;;;;;9.95;73.63;99684.69;4971875;28;20314;-62
2022/03/29 06:38:54;;;;;;;38.57;26.07;;;;;;;10.01;73.03;99694.63;4971706;28;20616;-62
2022/03/29 06:41:20;;;;;;;38.33;26.60;;;;;;;10.18;73.37;99685.91;4963389;28;20655;-61
2022/03/29 06:43:45;;;;;;;38.57;27.57;;;;;;;10.48;71.48;99679.88;4977757;28;20191;-62
2022/03/29 06:46:11;;;;;;;43.40;27.93;;;;;;;10.76;70.26;99691.03;4971089;28;20200;-63
2022/03/29 06:48:37;;;;;;;40.60;26.37;;;;;;;11.07;68.14;99683.16;4972431;28;20208;-64
2022/03/29 06:51:02;;;;;;;38.83;27.53;;;;;;;11.37;66.63;99687.25;4964506;28;20314;-64
2022/03/29 06:53:27;;;;;;;37.43;27.70;;;;;;;11.51;65.67;99683.78;4982777;28;20187;-64
2022/03/29 06:55:53;;;;;;;39.83;28.33;;;;;;;11.71;63.53;99673.00;4976004;28;20188;-63
2022/03/29 06:58:19;;;;;;;36.83;27.37;;;;;;;11.94;62.04;99681.78;4976221;28;20244;-63
2022/03/29 07:00:44;;;;;;;35.33;27.10;;;;;;;12.27;60.86;99677.88;4957722;28;20636;-64
2022/03/29 07:03:10;;;;;;;37.10;27.80;;;;;;;12.22;61.13;99679.13;4985291;28;20216;-62
2022/03/29 07:05:38;;;;;;;37.30;28.23;;;;;;;12.15;60.83;99683.84;4970192;28;20173;-64
2022/03/29 07:08:05;;;;;;;45.60;26.27;;;;;;;12.41;59.97;99682.06;4954676;28;20211;-63
2022/03/29 07:13:14;;;;;;;44.13;29.67;;;;;;;11.94;60.63;99675.78;4965519;28;20546;-64
2022/03/29 07:15:40;;;;;;;40.57;27.57;;;;;;;12.05;61.47;99669.97;4953551;28;20231;-63
2022/03/29 07:18:06;;;;;;;36.17;26.73;;;;;;;12.27;60.67;99675.28;4985942;28;20180;-63
2022/03/29 07:20:32;;;;;;;38.10;28.13;;;;;;;12.36;60.03;99680.75;4967152;28;20311;-64
2022/03/29 07:22:57;;;;;;;37.83;26.47;;;;;;;12.20;58.94;99678.41;4999217;28;20625;-63
2022/03/29 07:25:25;;;;;;;40.33;28.30;;;;;;;12.53;58.06;99671.88;4994699;28;20183;-60
2022/03/29 07:27:52;;;;;;;39.40;26.63;;;;;;;12.43;57.91;99676.84;4994210;28;20225;-60
2022/03/29 07:30:17;;;;;;;38.93;26.67;;;;;;;12.61;55.69;99672.13;4965123;28;20206;-59
2022/03/29 07:32:45;;;;;;;40.57;27.57;;;;;;;12.78;56.32;99670.97;4982410;28;20547;-59
2022/03/29 07:35:12;;;;;;;38.13;27.10;;;;;;;12.95;56.25;99671.50;4975092;28;20239;-58
2022/03/29 07:37:37;;;;;;;37.90;26.67;;;;;;;12.95;54.79;99669.75;4974273;28;20208;-59
2022/03/29 07:40:03;;;;;;;40.67;28.57;;;;;;;13.26;53.97;99674.47;4969186;28;20215;-57
2022/03/29 07:42:28;;;;;;;43.10;27.43;;;;;;;13.50;52.57;99677.06;4990243;28;20214;-58
2022/03/29 07:44:54;;;;;;;42.30;31.73;;;;;;;13.86;51.64;99680.44;4992601;28;20416;-63
2022/03/29 07:47:19;;;;;;;39.97;28.77;;;;;;;13.84;51.57;99679.72;4989868;28;20194;-62
2022/03/29 07:49:46;;;;;;;39.17;28.30;;;;;;;13.78;51.34;99678.44;4992365;28;20178;-63
2022/03/29 07:52:12;;;;;;;50.00;28.60;;;;;;;13.58;52.09;99682.47;4985556;28;20234;-63
2022/03/29 07:54:38;;;;;;;39.60;26.93;;;;;;;13.63;52.37;99679.56;4992034;28;20270;-62
2022/03/29 07:57:06;;;;;;;41.67;27.07;;;;;;;13.35;53.07;99682.38;4993801;28;20619;-63
2022/03/29 07:59:31;;;;;;;46.70;27.53;;;;;;;13.09;54.12;99679.09;4992242;28;20258;-63
2022/03/29 08:01:57;;;;;;;35.67;26.83;;;;;;;12.99;53.80;99678.13;4997293;28;20377;-63
2022/03/29 08:04:22;;;;;;;39.97;27.03;;;;;;;13.07;53.92;99670.63;4993783;28;20184;-63
2022/03/29 08:06:47;;;;;;;42.27;27.10;;;;;;;12.68;55.12;99673.34;4993992;28;20191;-63
2022/03/29 08:09:14;;;;;;;35.80;26.37;;;;;;;12.57;55.65;99678.44;4992864;28;20179;-66
2022/03/29 08:11:40;;;;;;;37.13;25.37;;;;;;;12.89;55.58;99665.03;4996251;28;20227;-64
2022/03/29 08:14:06;;;;;;;35.37;25.27;;;;;;;13.03;54.32;99671.78;4992888;28;20267;-63
2022/03/29 08:16:33;;;;;;;33.20;23.47;;;;;;;13.13;53.72;99667.59;4992135;28;20187;-62
2022/03/29 08:18:59;;;;;;;31.63;23.27;;;;;;;13.04;53.81;99671.66;4992028;28;20191;-63
2022/03/29 08:24:09;;;;;;;27.57;20.40;;;;;;;13.65;50.93;99669.94;4994166;28;20270;-63
2022/03/29 08:26:35;;;;;;;24.37;19.03;;;;;;;13.73;50.82;99662.44;4987126;28;20200;-62
2022/03/29 08:29:00;;;;;;;26.10;18.37;;;;;;;14.38;49.16;99667.88;4935385;28;20222;-62
2022/03/29 08:31:25;;;;;;;24.80;18.53;;;;;;;14.02;48.59;99662.00;4996053;28;20288;-63
2022/03/29 08:33:51;;;;;;;22.07;16.87;;;;;;;14.50;47.14;99658.34;5011302;28;20197;-61
2022/03/29 08:36:16;;;;;;;23.77;17.43;;;;;;;14.68;46.27;99664.66;5013113;28;20549;-62
2022/03/29 08:38:42;;;;;;;20.00;16.23;;;;;;;14.91;45.96;99663.78;5012101;28;20646;-62
2022/03/29 08:41:08;;;;;;;25.00;16.73;;;;;;;15.42;44.54;99665.72;5011097;28;20307;-62
2022/03/29 08:43:33;;;;;;;19.63;15.80;;;;;;;15.03;44.42;99660.22;5019160;28;20527;-63
2022/03/29 08:45:59;;;;;;;18.53;15.47;;;;;;;15.22;44.06;99667.34;5000948;28;20312;-62
2022/03/29 08:48:27;;;;;;;18.90;15.57;;;;;;;15.57;43.25;99665.41;5011672;28;20214;-63
2022/03/29 08:50:54;;;;;;;21.03;16.07;;;;;;;15.77;42.24;99663.75;5004921;28;20241;-64
2022/03/29 08:53:20;;;;;;;18.87;16.40;;;;;;;15.54;43.20;99660.47;5007325;28;20183;-63
2022/03/29 08:55:47;;;;;;;20.20;15.87;;;;;;;15.72;42.66;99651.16;5011657;28;20236;-62
2022/03/29 08:58:15;;;;;;;23.13;15.90;;;;;;;15.40;42.70;99659.81;5012093;28;20183;-64
2022/03/29 09:00:42;;;;;;;21.07;15.90;;;;;;;15.01;44.01;99652.59;5003670;28;20245;-62
2022/03/29 09:03:07;;;;;;;19.33;16.43;;;;;;;14.67;44.83;99647.50;5010155;28;20230;-62
2022/03/29 09:05:33;;;;;;;23.60;16.03;;;;;;;15.27;43.73;99648.81;5011506;28;20197;-59
2022/03/29 09:08:00;;;;;;;26.70;17.97;;;;;;;15.41;43.40;99648.53;5012509;28;20195;-58
2022/03/29 09:10:38;;;;;;;22.67;16.97;;;;;;;15.53;44.23;99651.88;5004857;28;20226;-57
2022/03/29 09:13:24;;;;;;;23.63;19.60;;;;;;;15.57;43.43;99649.88;5021390;28;20439;-57
2022/03/29 09:15:52;;;;;;;23.50;17.83;;;;;;;15.11;44.29;99647.47;5002785;28;20266;-57
2022/03/29 09:18:18;;;;;;;24.87;18.83;;;;;;;14.60;46.17;99648.06;4995473;28;20202;-57
2022/03/29 09:20:45;;;;;;;23.33;19.27;;;;;;;14.37;46.64;99635.16;4992243;28;20620;-56
2022/03/29 09:23:15;;;;;;;24.03;18.60;;;;;;;14.27;47.20;99642.81;5001637;28;20477;-62
2022/03/29 09:25:47;;;;;;;24.85;22.02;;;;;;;14.51;46.84;99639.25;4990501;28;20423;-66
2022/03/29 09:28:14;;;;;;;24.43;20.43;;;;;;;14.55;47.01;99634.66;4993459;28;20213;-63
2022/03/29 09:30:53;;;;;;;24.88;19.38;;;;;;;14.66;46.26;99634.66;4988576;28;20560;-63
2022/03/29 09:33:27;;;;;;;26.23;19.30;;;;;;;14.81;46.36;99632.63;4999700;28;20183;-64
2022/03/29 09:36:03;;;;;;;26.23;20.55;;;;;;;15.35;45.30;99627.47;4991262;28;20558;-63
2022/03/29 09:38:30;;;;;;;21.50;16.60;;;;;;;15.30;44.34;99628.66;4992170;28;20274;-62
2022/03/29 09:40:57;;;;;;;18.43;15.33;;;;;;;15.12;44.20;99630.16;4983530;28;20218;-63
2022/03/29 09:43:25;;;;;;;24.30;16.13;;;;;;;14.80;44.72;99629.22;4990533;28;20187;-63
2022/03/29 09:45:53;;;;;;;23.27;15.83;;;;;;;14.75;45.67;99628.78;4992431;28;20555;-64
2022/03/29 09:48:20;;;;;;;24.77;17.17;;;;;;;14.62;46.12;99617.72;4979874;28;20212;-64
2022/03/29 09:50:46;;;;;;;23.00;17.30;;;;;;;14.72;46.22;99617.84;4968600;28;20226;-61
2022/03/29 09:53:51;;;;;;;24.37;16.07;;;;;;;14.76;45.09;99617.47;4985675;28;20599;-62
2022/03/29 09:56:26;;;;;;;24.40;15.53;;;;;;;15.57;44.29;99614.38;4991954;28;20547;-63
2022/03/29 09:59:03;;;;;;;16.57;13.43;;;;;;;15.54;43.25;99603.44;4990042;28;20206;-63
2022/03/29 10:01:29;;;;;;;19.23;13.90;;;;;;;16.02;42.71;99595.09;4992668;28;20744;-63
2022/03/29 10:03:56;;;;;;;23.07;15.30;;;;;;;15.92;42.56;99602.84;4990345;28;20282;-62
2022/03/29 10:06:23;;;;;;;20.23;16.23;;;;;;;16.13;42.16;99583.81;4990965;28;20266;-63
2022/03/29 10:11:35;;;;;;;22.03;18.23;;;;;;;16.12;43.03;99589.94;4974682;28;20293;-63
2022/03/29 10:14:02;;;;;;;24.83;17.37;;;;;;;16.86;41.44;99580.88;4970795;28;20208;-62
2022/03/29 10:16:28;;;;;;;23.60;17.07;;;;;;;17.45;40.14;99580.84;4983334;28;20215;-64
2022/03/29 10:18:54;;;;;;;24.58;19.02;;;;;;;18.23;38.44;99579.72;4991830;28;20459;-64
2022/03/29 10:21:20;;;;;;;24.13;16.43;;;;;;;18.29;37.88;99573.94;4989002;28;20693;-61
2022/03/29 10:23:49;;;;;;;24.57;17.53;;;;;;;17.88;38.66;99571.63;5008762;28;20178;-62
2022/03/29 10:26:16;;;;;;;22.97;17.53;;;;;;;18.04;38.11;99568.44;5010885;28;20193;-62
2022/03/29 10:28:42;;;;;;;21.50;16.67;;;;;;;18.35;37.07;99562.13;5008790;28;20211;-63
2022/03/29 10:31:28;;;;;;;22.73;17.17;;;;;;;18.54;37.10;99559.38;5013849;28;20229;-64
2022/03/29 10:34:17;;;;;;;20.90;15.87;;;;;;;18.69;37.17;99551.88;5013729;28;20481;-62
2022/03/29 10:37:01;;;;;;;16.43;14.73;;;;;;;18.49;37.06;99543.38;5014744;28;20237;-62
2022/03/29 10:39:46;;;;;;;19.80;15.67;;;;;;;17.14;38.87;99546.44;5011149;28;20603;-62
2022/03/29 10:42:42;;;;;;;20.20;14.57;;;;;;;16.96;39.47;99538.53;5001406;28;20344;-62
2022/03/29 10:45:16;;;;;;;23.40;16.53;;;;;;;17.22;39.06;99547.38;4993992;28;20194;-62
2022/03/29 10:47:44;;;;;;;19.40;16.17;;;;;;;16.86;39.79;99536.72;4994606;28;20617;-63
2022/03/29 10:50:13;;;;;;;22.03;17.37;;;;;;;16.39;40.76;99532.22;4984861;28;20175;-63
2022/03/29 10:52:38;;;;;;;24.47;16.60;;;;;;;16.47;40.40;99539.31;5008821;28;20531;-63
2022/03/29 10:55:30;;;;;;;22.13;18.30;;;;;;;16.56;40.02;99532.50;4994332;28;20187;-62
2022/03/29 10:58:13;;;;;;;27.40;19.03;;;;;;;16.66;40.20;99524.72;4994679;28;20203;-62
2022/03/29 11:00:48;;;;;;;23.07;18.37;;;;;;;16.46;41.00;99519.53;4976747;28;20590;-64
2022/03/29 11:03:15;;;;;;;25.37;17.03;;;;;;;16.74;40.02;99517.06;4993497;28;20226;-64
2022/03/29 11:06:06;;;;;;;22.60;17.53;;;;;;;16.14;41.50;99507.63;4993842;28;20210;-61
2022/03/29 11:08:34;;;;;;;27.27;17.53;;;;;;;16.38;40.98;99507.22;4994760;28;20281;-62
2022/03/29 11:11:00;;;;;;;21.70;17.10;;;;;;;16.08;42.04;99508.16;4992458;28;20604;-62
2022/03/29 11:13:31;;;;;;;23.40;18.67;;;;;;;16.41;41.43;99500.94;4992533;28;20187;-63
2022/03/29 11:16:02;;;;;;;23.63;16.93;;;;;;;16.73;40.40;99502.44;4998610;28;20725;-63
2022/03/29 11:18:30;;;;;;;21.63;16.60;;;;;;;16.43;41.31;99494.66;5002466;28;20236;-62
2022/03/29 11:21:02;;;;;;;27.37;16.70;;;;;;;16.27;41.60;99490.03;4992136;28;20285;-64
2022/03/29 11:23:33;;;;;;;22.50;16.73;;;;;;;16.54;41.23;99485.09;4993472;28;20187;-62
2022/03/29 11:26:14;;;;;;;20.30;16.93;;;;;;;16.85;41.21;99482.34;4994506;28;20235;-64
2022/03/29 11:28:55;;;;;;;25.05;19.08;;;;;;;17.09;40.41;99481.88;4991645;28;20440;-63
2022/03/29 11:31:23;;;;;;;21.27;17.40;;;;;;;16.57;40.97;99477.03;4956477;28;20639;-64
2022/03/29 11:33:50;;;;;;;23.10;17.40;;;;;;;16.96;40.53;99474.41;4994004;28;20172;-69
2022/03/29 11:36:19;;;;;;;20.70;15.97;;;;;;;16.69;40.28;99469.91;4993642;28;20672;-63